Time;durP1;ratioP1;P1;durP2;ratioP2;P2;SDS_P1;SDS_P2;PMS_P1;PMS_P2;Temp;Humidity;BMP_temperature;BMP_pressure;BME280_temperature;BME280_humidity;BME280_pressure;Samples;Min_cycle;Max_cycle;Signal;HPM_P1;HPM_P2
2021/12/17 00:01:14;;;;;;;62.13;34.27;;;9.00;81.30;;;;;;5031114;28;20534;-88
2021/12/17 00:03:45;;;;;;;79.55;35.42;;;9.00;81.10;;;;;;5017273;28;20551;-88
2021/12/17 00:08:52;;;;;;;62.25;34.17;;;8.90;81.10;;;;;;5019215;28;20171;-88
2021/12/17 00:11:19;;;;;;;58.28;31.15;;;8.80;81.20;;;;;;5018548;28;20182;-88
2021/12/17 00:13:46;;;;;;;57.55;34.75;;;8.80;81.40;;;;;;5028879;28;20197;-88
2021/12/17 00:16:17;;;;;;;62.75;31.80;;;8.70;81.70;;;;;;5044196;28;20189;-88
2021/12/17 00:48:42;;;;;;;55.28;29.48;;;9.10;82.20;;;;;;5026104;28;20257;-86
2021/12/17 00:54:02;;;;;;;60.40;27.60;;;9.00;82.20;;;;;;5043850;28;20272;-86
2021/12/17 00:56:28;;;;;;;63.67;29.10;;;9.00;82.10;;;;;;5037122;28;20237;-86
2021/12/17 00:58:55;;;;;;;84.47;32.00;;;9.00;82.00;;;;;;5026599;28;20181;-86
2021/12/17 01:01:21;;;;;;;89.25;32.08;;;9.00;82.20;;;;;;5035281;28;20194;-86
2021/12/17 01:03:49;;;;;;;76.00;27.90;;;8.90;82.50;;;;;;5038686;28;20188;-85
2021/12/17 01:06:15;;;;;;;75.88;29.00;;;8.80;82.80;;;;;;5039322;28;20229;-87
2021/12/17 01:08:41;;;;;;;69.35;26.50;;;8.70;83.50;;;;;;5034537;28;20646;-86
2021/12/17 01:11:07;;;;;;;57.50;27.70;;;8.70;84.70;;;;;;5020557;28;20182;-87
2021/12/17 01:13:35;;;;;;;68.90;28.90;;;8.70;84.20;;;;;;5027735;28;20197;-87
2021/12/17 01:16:00;;;;;;;64.40;25.63;;;8.30;84.80;;;;;;5038426;28;20445;-87
2021/12/17 01:18:40;;;;;;;63.63;28.40;;;8.30;85.60;;;;;;5039841;28;20182;-87
2021/12/17 01:21:23;;;;;;;68.00;26.92;;;8.40;86.70;;;;;;5022280;28;20445;-87
2021/12/17 01:24:07;;;;;;;62.30;28.58;;;8.60;86.00;;;;;;5040206;28;20277;-87
2021/12/17 01:43:04;;;;;;;58.50;25.38;;;7.70;88.40;;;;;;5039014;28;20180;-86
2021/12/17 01:45:36;;;;;;;77.82;21.33;;;7.90;88.70;;;;;;5039310;28;20209;-86
2021/12/17 01:48:06;;;;;;;48.58;20.95;;;7.70;88.70;;;;;;5044063;28;20174;-87
2021/12/17 01:56:17;;;;;;;68.28;24.67;;;7.90;89.40;;;;;;5041844;28;20177;-86
2021/12/17 02:01:29;;;;;;;56.85;22.48;;;8.10;89.30;;;;;;5042218;28;20320;-86
2021/12/17 02:03:56;;;;;;;43.03;23.00;;;8.10;89.10;;;;;;5038967;28;20198;-86
2021/12/17 02:06:23;;;;;;;55.70;21.67;;;8.10;88.90;;;;;;5038259;28;20198;-87
2021/12/17 02:08:51;;;;;;;49.97;22.88;;;7.70;88.80;;;;;;5038099;28;20166;-86
2021/12/17 02:19:46;;;;;;;53.42;19.63;;;7.70;89.70;;;;;;5035212;28;20169;-86
2021/12/17 02:30:48;;;;;;;38.35;20.38;;;7.30;90.00;;;;;;5036669;28;20279;-86
2021/12/17 02:33:13;;;;;;;48.22;23.73;;;7.30;90.30;;;;;;5035496;28;20206;-86
2021/12/17 02:35:43;;;;;;;56.20;22.70;;;7.40;90.50;;;;;;5036314;28;20256;-86
2021/12/17 02:38:12;;;;;;;49.47;21.52;;;7.40;90.50;;;;;;5034448;28;20654;-86
2021/12/17 02:45:49;;;;;;;58.50;23.53;;;7.90;89.50;;;;;;5036338;28;20209;-86
2021/12/17 02:48:22;;;;;;;56.83;25.38;;;7.90;89.50;;;;;;5033606;28;20446;-87
2021/12/17 02:50:51;;;;;;;54.08;23.90;;;7.90;89.50;;;;;;5016095;28;20193;-87
2021/12/17 02:53:19;;;;;;;53.45;24.15;;;8.30;89.40;;;;;;5015159;28;20302;-87
2021/12/17 02:55:49;;;;;;;50.72;22.70;;;8.40;88.80;;;;;;5015938;28;20658;-86
2021/12/17 02:58:15;;;;;;;48.35;23.50;;;8.50;88.10;;;;;;5014876;28;20177;-86
2021/12/17 03:00:43;;;;;;;53.60;23.52;;;8.40;87.40;;;;;;5015075;28;20554;-86
2021/12/17 03:03:10;;;;;;;55.35;23.20;;;8.30;87.30;;;;;;5016449;28;20281;-86
2021/12/17 03:05:39;;;;;;;56.10;24.50;;;8.50;87.30;;;;;;5014782;28;20352;-86
2021/12/17 03:08:07;;;;;;;47.28;23.55;;;8.50;87.10;;;;;;5014938;28;20183;-86
2021/12/17 03:10:33;;;;;;;56.20;25.15;;;8.50;86.80;;;;;;5014714;28;20642;-86
2021/12/17 03:13:02;;;;;;;80.30;26.10;;;8.40;86.80;;;;;;5016447;28;20199;-86
2021/12/17 03:23:29;;;;;;;44.25;21.60;;;8.00;87.00;;;;;;5022507;28;20704;-86
2021/12/17 03:25:57;;;;;;;49.97;22.15;;;7.80;87.30;;;;;;5016551;28;20689;-86
2021/12/17 03:28:23;;;;;;;56.90;25.70;;;7.80;87.70;;;;;;5000611;28;20189;-87
2021/12/17 03:30:49;;;;;;;58.57;24.00;;;7.90;87.90;;;;;;5017615;28;20273;-87
2021/12/17 03:33:15;;;;;;;46.08;23.20;;;7.70;88.00;;;;;;5039215;28;20213;-87
2021/12/17 03:35:41;;;;;;;60.73;24.30;;;7.70;88.30;;;;;;5044377;28;20194;-87
2021/12/17 03:38:07;;;;;;;50.45;23.63;;;8.00;88.50;;;;;;5043275;28;20416;-86
2021/12/17 03:40:34;;;;;;;43.60;22.35;;;8.00;88.30;;;;;;5042602;28;20249;-86
2021/12/17 03:43:11;;;;;;;45.33;21.70;;;8.20;88.10;;;;;;5042727;28;20182;-86
2021/12/17 03:45:37;;;;;;;39.72;21.27;;;8.20;88.00;;;;;;5040444;28;20202;-87
2021/12/17 03:48:03;;;;;;;39.70;20.33;;;8.20;87.90;;;;;;5021106;28;20208;-86
2021/12/17 03:50:29;;;;;;;47.65;21.70;;;8.00;87.80;;;;;;5019538;28;20417;-87
2021/12/17 03:52:54;;;;;;;57.10;22.67;;;7.90;88.00;;;;;;5018672;28;20552;-87
2021/12/17 03:55:20;;;;;;;78.03;22.57;;;8.00;88.10;;;;;;5018686;28;20438;-86
2021/12/17 03:57:46;;;;;;;47.17;22.57;;;8.20;88.20;;;;;;5018736;28;20178;-86
2021/12/17 04:00:13;;;;;;;62.20;23.43;;;8.20;87.90;;;;;;5039350;28;20170;-86
2021/12/17 04:02:38;;;;;;;46.80;21.60;;;8.30;87.80;;;;;;5019396;28;20174;-87
2021/12/17 04:05:05;;;;;;;56.63;23.40;;;8.40;87.40;;;;;;5017507;28;20202;-87
2021/12/17 04:07:31;;;;;;;50.72;21.23;;;8.50;87.10;;;;;;5016826;28;20182;-87
2021/12/17 04:09:56;;;;;;;46.83;22.63;;;8.20;86.20;;;;;;5017192;28;20270;-86
2021/12/17 04:12:33;;;;;;;49.43;22.33;;;8.10;86.30;;;;;;5018052;28;20892;-87
2021/12/17 04:15:00;;;;;;;47.75;21.48;;;8.10;86.50;;;;;;5017460;28;20203;-87
2021/12/17 04:17:26;;;;;;;44.85;20.98;;;8.20;86.60;;;;;;5017044;28;20175;-87
2021/12/17 04:19:52;;;;;;;55.60;20.20;;;8.30;86.50;;;;;;5017943;28;20741;-87
2021/12/17 04:22:19;;;;;;;45.40;20.33;;;7.90;86.20;;;;;;5017427;28;20413;-87
2021/12/17 04:24:44;;;;;;;35.80;18.45;;;7.70;86.40;;;;;;5016376;28;20487;-86
2021/12/17 04:27:10;;;;;;;48.67;20.03;;;7.60;86.70;;;;;;5016972;28;20182;-87
2021/12/17 04:29:41;;;;;;;41.93;19.43;;;7.50;87.00;;;;;;5016710;28;20418;-87
2021/12/17 04:32:07;;;;;;;40.35;17.85;;;7.50;87.20;;;;;;5032935;28;20421;-87
2021/12/17 04:34:33;;;;;;;43.13;18.23;;;7.50;87.40;;;;;;5017687;28;20191;-86
2021/12/17 04:36:59;;;;;;;39.07;16.57;;;7.50;87.70;;;;;;5016655;28;20417;-87
2021/12/17 04:39:25;;;;;;;41.70;17.70;;;7.30;87.50;;;;;;5016762;28;20414;-86
2021/12/17 04:44:29;;;;;;;44.03;19.90;;;7.20;87.30;;;;;;5017126;28;20261;-86
2021/12/17 04:57:55;;;;;;;40.97;19.50;;;6.90;86.70;;;;;;5036176;28;20166;-85
2021/12/17 05:00:24;;;;;;;43.80;19.20;;;6.80;86.60;;;;;;5016598;28;20183;-86
2021/12/17 05:02:54;;;;;;;40.33;19.35;;;6.70;86.90;;;;;;5017867;28;20193;-87
2021/12/17 05:05:29;;;;;;;38.92;20.38;;;6.80;87.20;;;;;;5017945;28;20202;-87
2021/12/17 05:08:01;;;;;;;57.10;20.23;;;6.60;87.30;;;;;;5016326;28;20185;-88
2021/12/17 05:18:26;;;;;;;40.22;18.65;;;6.70;88.20;;;;;;5037207;28;20599;-87
2021/12/17 05:21:00;;;;;;;42.33;20.17;;;6.50;88.30;;;;;;5035271;28;20648;-86
2021/12/17 05:23:33;;;;;;;47.40;19.63;;;6.80;88.50;;;;;;5035716;28;20180;-87
2021/12/17 05:26:06;;;;;;;43.15;20.45;;;6.90;88.20;;;;;;5035726;28;20185;-87
2021/12/17 05:28:32;;;;;;;42.85;20.90;;;6.70;88.30;;;;;;5031121;28;20626;-87
2021/12/17 05:30:58;;;;;;;49.15;21.02;;;7.00;88.30;;;;;;5016081;28;20683;-87
2021/12/17 05:33:25;;;;;;;69.07;22.63;;;7.10;88.20;;;;;;5015360;28;20210;-87
2021/12/17 05:35:52;;;;;;;81.15;23.23;;;7.20;87.90;;;;;;5022244;28;20439;-87
2021/12/17 05:38:19;;;;;;;54.30;22.70;;;7.10;87.80;;;;;;5036164;28;20285;-87
2021/12/17 05:40:46;;;;;;;65.35;23.77;;;7.10;87.60;;;;;;5037092;28;20308;-86
2021/12/17 05:43:14;;;;;;;58.35;24.23;;;7.30;87.60;;;;;;5030063;28;20182;-86
2021/12/17 05:46:03;;;;;;;71.25;22.60;;;7.50;87.10;;;;;;5017382;28;20191;-88
2021/12/17 05:48:29;;;;;;;49.58;23.30;;;7.50;86.70;;;;;;5018528;28;20280;-88
2021/12/17 05:50:56;;;;;;;50.53;22.80;;;7.60;86.50;;;;;;5018982;28;20174;-88
2021/12/17 05:53:23;;;;;;;53.78;23.10;;;7.50;86.30;;;;;;5017745;28;20449;-88
2021/12/17 05:55:49;;;;;;;77.97;22.73;;;7.60;86.00;;;;;;5015764;28;20209;-88
2021/12/17 05:58:16;;;;;;;56.33;22.40;;;7.60;85.80;;;;;;5017855;28;20170;-88
2021/12/17 06:00:43;;;;;;;56.28;22.88;;;7.50;85.90;;;;;;5015767;28;20921;-88
2021/12/17 06:03:09;;;;;;;82.55;24.65;;;7.50;86.10;;;;;;5018439;28;20251;-88
2021/12/17 06:05:35;;;;;;;70.03;26.00;;;7.50;85.90;;;;;;5017742;28;20205;-88
2021/12/17 06:08:01;;;;;;;75.32;26.23;;;7.60;85.90;;;;;;5035501;28;20228;-87
2021/12/17 06:10:27;;;;;;;90.67;26.77;;;7.50;85.80;;;;;;5045447;28;20260;-87
2021/12/17 06:12:53;;;;;;;110.07;28.02;;;7.50;86.00;;;;;;5044606;28;20194;-88
2021/12/17 06:15:21;;;;;;;91.78;25.70;;;7.50;86.20;;;;;;5050403;28;20205;-90
2021/12/17 06:17:48;;;;;;;88.65;27.23;;;7.50;86.40;;;;;;5050738;28;20182;-88
2021/12/17 06:20:16;;;;;;;91.22;27.67;;;7.50;86.60;;;;;;5038058;28;20225;-87
2021/12/17 06:22:42;;;;;;;82.80;26.60;;;7.40;86.80;;;;;;5047878;28;20256;-88
2021/12/17 06:25:09;;;;;;;101.30;25.25;;;7.40;87.00;;;;;;5044270;28;20189;-85
2021/12/17 06:27:35;;;;;;;101.07;30.40;;;7.60;87.10;;;;;;5052295;28;20184;-87
2021/12/17 06:30:03;;;;;;;91.47;28.10;;;7.60;87.00;;;;;;5052717;28;20185;-87
2021/12/17 06:32:29;;;;;;;85.53;27.15;;;7.60;87.00;;;;;;5048901;28;20837;-87
2021/12/17 06:34:55;;;;;;;104.57;27.57;;;7.50;87.00;;;;;;5045270;28;20231;-87
2021/12/17 06:37:21;;;;;;;120.10;32.33;;;7.50;87.20;;;;;;5047745;28;20193;-86
2021/12/17 06:39:47;;;;;;;106.40;28.13;;;7.70;87.10;;;;;;5047599;28;20495;-86
2021/12/17 06:42:14;;;;;;;131.02;29.15;;;7.40;87.10;;;;;;5044818;28;20556;-86
2021/12/17 06:44:41;;;;;;;91.78;28.80;;;7.50;87.40;;;;;;5045930;28;20194;-86
2021/12/17 06:47:14;;;;;;;85.47;27.70;;;7.70;87.40;;;;;;5047973;28;20178;-87
2021/12/17 07:10:43;;;;;;;83.38;27.60;;;8.10;87.20;;;;;;5044594;28;20304;-85
2021/12/17 07:20:18;;;;;;;79.97;26.40;;;8.10;86.80;;;;;;5025199;28;20174;-87
2021/12/17 07:39:40;;;;;;;63.37;24.40;;;8.00;87.20;;;;;;5021869;28;20186;-88
2021/12/17 07:42:06;;;;;;;90.17;27.07;;;7.90;87.40;;;;;;5021363;28;20170;-88
2021/12/17 07:44:32;;;;;;;73.57;23.63;;;8.00;87.60;;;;;;5020176;28;20528;-88
2021/12/17 07:46:58;;;;;;;81.10;26.75;;;7.80;87.50;;;;;;5019295;28;20405;-88
2021/12/17 07:49:24;;;;;;;67.13;23.67;;;7.70;87.90;;;;;;5019774;28;20186;-88
2021/12/17 07:51:50;;;;;;;80.50;24.80;;;7.70;88.30;;;;;;5030050;28;20519;-88
2021/12/17 07:54:16;;;;;;;63.78;23.52;;;7.70;88.60;;;;;;5039248;28;20558;-88
2021/12/17 07:56:42;;;;;;;76.47;22.95;;;7.90;88.40;;;;;;5039406;28;20655;-87
2021/12/17 07:59:09;;;;;;;72.57;22.73;;;8.00;88.20;;;;;;5039073;28;20238;-88
2021/12/17 08:01:36;;;;;;;69.90;23.40;;;7.90;88.20;;;;;;5039354;28;20170;-87
2021/12/17 08:04:06;;;;;;;65.78;21.85;;;8.10;88.20;;;;;;5038402;28;20205;-87
2021/12/17 08:06:33;;;;;;;65.20;20.75;;;7.90;88.00;;;;;;5023253;28;20182;-88
2021/12/17 08:08:59;;;;;;;60.72;23.30;;;7.90;88.20;;;;;;5037934;28;20633;-88
2021/12/17 08:11:26;;;;;;;66.33;22.70;;;7.80;88.30;;;;;;5038192;28;20185;-88
2021/12/17 08:13:55;;;;;;;69.55;21.75;;;7.80;88.50;;;;;;5038991;28;20467;-88
2021/12/17 08:32:43;;;;;;;66.78;20.17;;;8.10;88.30;;;;;;5042907;28;20224;-82
2021/12/17 08:35:10;;;;;;;66.57;19.13;;;8.00;88.50;;;;;;5044465;28;20193;-82
2021/12/17 08:37:36;;;;;;;74.82;20.27;;;8.00;88.70;;;;;;5043604;28;20227;-81
2021/12/17 08:40:07;;;;;;;57.70;20.97;;;8.30;88.90;;;;;;5042851;28;20336;-81
2021/12/17 08:42:33;;;;;;;77.60;21.33;;;8.30;88.50;;;;;;5041386;28;20417;-81
2021/12/17 08:45:00;;;;;;;61.30;21.00;;;8.40;88.80;;;;;;5039799;28;20205;-80
2021/12/17 08:47:26;;;;;;;63.47;19.50;;;8.60;88.00;;;;;;5040850;28;20424;-81
2021/12/17 08:49:53;;;;;;;70.32;21.52;;;8.70;87.70;;;;;;5040696;28;20197;-80
2021/12/17 08:52:19;;;;;;;59.95;21.63;;;8.70;87.20;;;;;;5041921;28;20197;-81
2021/12/17 08:54:45;;;;;;;58.20;20.75;;;8.60;87.20;;;;;;5041462;28;20236;-81
2021/12/17 08:57:11;;;;;;;51.67;18.47;;;8.50;87.50;;;;;;5040426;28;20178;-80
2021/12/17 08:59:37;;;;;;;54.80;19.17;;;8.70;87.60;;;;;;5039878;28;20206;-81
2021/12/17 09:02:03;;;;;;;54.83;20.02;;;8.70;87.50;;;;;;5042612;28;20427;-80
2021/12/17 09:04:29;;;;;;;51.45;18.30;;;8.60;87.30;;;;;;5042274;28;20208;-82
2021/12/17 09:06:55;;;;;;;47.13;17.90;;;8.60;87.50;;;;;;5047247;28;20201;-80
2021/12/17 09:09:22;;;;;;;58.70;19.35;;;8.90;87.50;;;;;;5049171;28;20504;-81
2021/12/17 09:11:49;;;;;;;52.97;20.67;;;8.90;87.00;;;;;;5050068;28;20189;-81
2021/12/17 09:14:19;;;;;;;46.83;19.17;;;8.80;87.70;;;;;;5053050;28;20221;-81
2021/12/17 09:16:47;;;;;;;48.97;19.55;;;8.80;87.00;;;;;;5050148;28;20212;-82
2021/12/17 09:19:13;;;;;;;61.50;19.15;;;8.80;87.00;;;;;;5052244;28;20605;-81
2021/12/17 09:21:39;;;;;;;51.78;19.75;;;9.00;86.90;;;;;;5048251;28;20288;-80
2021/12/17 09:24:05;;;;;;;61.00;20.63;;;8.90;86.50;;;;;;5041195;28;20248;-80
2021/12/17 09:26:33;;;;;;;53.63;21.85;;;8.70;86.60;;;;;;5042568;28;20672;-81
2021/12/17 09:28:59;;;;;;;51.85;20.10;;;8.80;86.90;;;;;;5042203;28;20327;-81
2021/12/17 09:31:25;;;;;;;61.60;21.65;;;8.90;86.90;;;;;;5041694;28;20187;-80
2021/12/17 09:33:51;;;;;;;59.20;20.60;;;9.00;86.70;;;;;;5040286;28;20241;-81
2021/12/17 09:36:19;;;;;;;54.95;20.25;;;8.90;86.70;;;;;;5042473;28;20185;-81
2021/12/17 09:38:49;;;;;;;57.85;21.25;;;9.00;86.50;;;;;;5040414;28;20214;-81
2021/12/17 09:41:26;;;;;;;68.85;21.48;;;8.90;86.50;;;;;;5041863;28;20570;-81
2021/12/17 09:43:53;;;;;;;67.63;22.38;;;9.00;86.70;;;;;;5039230;28;20276;-81
2021/12/17 09:46:19;;;;;;;55.70;19.77;;;9.10;86.80;;;;;;5040909;28;20252;-80
2021/12/17 09:48:47;;;;;;;57.20;19.13;;;9.10;86.50;;;;;;5042936;28;20604;-81
2021/12/17 09:51:14;;;;;;;56.75;20.27;;;9.10;86.30;;;;;;5026493;28;20194;-80
2021/12/17 09:53:41;;;;;;;41.75;19.23;;;9.00;86.30;;;;;;5038642;28;20204;-80
2021/12/17 09:56:07;;;;;;;50.67;16.33;;;9.00;86.30;;;;;;5040213;28;20178;-82
2021/12/17 09:58:33;;;;;;;48.70;20.02;;;9.10;86.50;;;;;;5040233;28;20232;-81
2021/12/17 10:01:00;;;;;;;50.40;18.50;;;9.10;86.40;;;;;;5042497;28;20657;-82
2021/12/17 10:03:27;;;;;;;50.97;17.92;;;9.00;86.40;;;;;;5039907;28;20186;-81
2021/12/17 10:05:53;;;;;;;47.60;18.20;;;9.10;86.40;;;;;;5043520;28;20645;-81
2021/12/17 10:08:22;;;;;;;48.25;18.65;;;9.10;86.60;;;;;;5043913;28;20285;-81
2021/12/17 10:10:55;;;;;;;50.38;18.55;;;9.20;86.40;;;;;;5042547;28;20241;-81
2021/12/17 10:13:24;;;;;;;51.70;18.15;;;9.20;86.40;;;;;;5041893;28;20198;-81
2021/12/17 10:15:56;;;;;;;42.30;17.10;;;9.10;86.60;;;;;;5040332;28;20226;-82
2021/12/17 10:18:46;;;;;;;55.78;20.10;;;9.10;86.60;;;;;;5039271;28;20227;-82
2021/12/17 10:21:26;;;;;;;49.25;19.23;;;9.10;86.80;;;;;;5040416;28;20205;-81
2021/12/17 10:23:54;;;;;;;51.13;21.52;;;9.20;86.70;;;;;;5039062;28;20191;-81
2021/12/17 10:26:22;;;;;;;42.40;19.63;;;9.30;86.50;;;;;;5040055;28;20683;-81
2021/12/17 10:28:55;;;;;;;45.97;19.55;;;9.10;86.50;;;;;;5039721;28;20533;-81
2021/12/17 10:31:21;;;;;;;48.80;19.23;;;9.30;86.70;;;;;;5039250;28;20261;-81
2021/12/17 10:33:51;;;;;;;38.97;16.45;;;9.50;86.60;;;;;;5038779;28;20627;-80
2021/12/17 10:36:17;;;;;;;37.58;14.70;;;9.40;86.40;;;;;;5041356;28;20180;-82
2021/12/17 10:38:45;;;;;;;42.70;16.48;;;9.50;86.30;;;;;;5039799;28;20182;-81
2021/12/17 10:41:14;;;;;;;44.88;18.10;;;9.40;86.10;;;;;;5039511;28;20181;-81
2021/12/17 10:43:48;;;;;;;42.90;16.02;;;9.30;86.40;;;;;;5038942;28;20186;-81
2021/12/17 10:46:32;;;;;;;44.08;16.17;;;9.20;86.80;;;;;;5039824;28;20265;-81
2021/12/17 10:54:18;;;;;;;33.63;16.48;;;9.50;86.20;;;;;;5040520;28;20197;-81
2021/12/17 10:56:45;;;;;;;38.97;16.27;;;9.50;86.00;;;;;;5039889;28;20555;-81
2021/12/17 10:59:18;;;;;;;44.92;15.70;;;9.50;86.20;;;;;;5038813;28;20174;-82
2021/12/17 11:01:55;;;;;;;37.28;16.20;;;9.40;86.00;;;;;;5038090;28;20177;-82
2021/12/17 11:04:36;;;;;;;47.85;15.98;;;9.20;86.30;;;;;;5038477;28;20189;-81
2021/12/17 11:07:06;;;;;;;38.25;15.27;;;9.20;86.70;;;;;;5039886;28;20165;-82
2021/12/17 11:10:06;;;;;;;40.40;17.02;;;9.20;86.90;;;;;;5039504;28;20185;-81
2021/12/17 11:12:39;;;;;;;46.42;17.25;;;9.20;87.00;;;;;;5041238;28;20220;-83
2021/12/17 11:15:19;;;;;;;33.60;14.70;;;9.20;87.10;;;;;;5021537;28;20201;-81
2021/12/17 11:18:04;;;;;;;43.15;17.17;;;9.30;87.30;;;;;;5019552;28;20641;-82
2021/12/17 11:20:30;;;;;;;42.08;17.92;;;9.40;87.10;;;;;;5024617;28;20209;-82
2021/12/17 11:23:05;;;;;;;40.03;16.87;;;9.40;86.80;;;;;;5020618;28;20184;-83
2021/12/17 11:25:32;;;;;;;39.60;17.55;;;9.20;87.20;;;;;;5035389;28;20198;-81
2021/12/17 11:27:58;;;;;;;51.47;21.80;;;9.20;87.60;;;;;;5030828;28;20195;-81
2021/12/17 11:30:28;;;;;;;41.42;17.70;;;9.30;87.70;;;;;;5025952;28;20186;-82
2021/12/17 11:32:55;;;;;;;41.03;18.20;;;9.50;87.40;;;;;;5019203;28;20260;-83
2021/12/17 11:35:26;;;;;;;37.53;15.13;;;9.50;87.10;;;;;;5024919;28;20661;-82
2021/12/17 11:37:56;;;;;;;37.00;17.10;;;9.50;87.00;;;;;;5035786;28;20185;-82
2021/12/17 11:40:49;;;;;;;41.42;16.17;;;9.50;86.90;;;;;;5023156;28;20178;-82
2021/12/17 11:43:19;;;;;;;44.90;16.17;;;9.70;86.80;;;;;;5041503;28;20197;-82
2021/12/17 11:45:57;;;;;;;45.67;15.48;;;9.70;86.60;;;;;;5038276;28;20187;-80
2021/12/17 11:48:26;;;;;;;34.22;13.57;;;9.40;86.50;;;;;;5021819;28;20269;-81
2021/12/17 11:51:04;;;;;;;37.90;13.20;;;9.40;86.80;;;;;;5018525;28;20202;-81
2021/12/17 11:53:30;;;;;;;44.88;16.27;;;9.50;87.40;;;;;;5021767;28;20214;-82
2021/12/17 11:56:02;;;;;;;41.58;16.10;;;9.60;87.30;;;;;;5021796;28;20194;-82
2021/12/17 11:58:50;;;;;;;39.35;16.45;;;9.60;87.20;;;;;;5020754;28;20187;-81
2021/12/17 12:01:46;;;;;;;45.50;16.40;;;9.60;86.80;;;;;;5026162;28;20232;-81
2021/12/17 12:04:31;;;;;;;37.90;14.38;;;9.80;86.70;;;;;;5047923;28;20212;-81
2021/12/17 12:07:19;;;;;;;37.17;16.17;;;9.90;86.50;;;;;;5047913;28;20178;-82
2021/12/17 12:09:57;;;;;;;39.63;17.38;;;9.70;86.50;;;;;;5037497;28;20193;-82
2021/12/17 12:12:40;;;;;;;41.95;14.80;;;9.90;86.50;;;;;;5035672;28;20173;-81
2021/12/17 12:15:27;;;;;;;45.13;16.67;;;10.00;86.20;;;;;;5046726;28;20236;-81
2021/12/17 12:18:06;;;;;;;38.78;15.63;;;9.90;86.20;;;;;;5033511;28;20186;-82
2021/12/17 12:20:48;;;;;;;34.95;14.68;;;9.70;86.40;;;;;;5052504;28;20197;-82
2021/12/17 12:23:36;;;;;;;43.80;19.10;;;9.70;86.90;;;;;;5033444;28;20466;-80
2021/12/17 12:26:08;;;;;;;34.28;13.48;;;9.80;87.10;;;;;;5026221;28;20182;-81
2021/12/17 12:28:49;;;;;;;44.38;17.60;;;10.00;87.10;;;;;;5044497;28;20178;-82
2021/12/17 12:31:18;;;;;;;31.98;13.23;;;10.00;86.80;;;;;;5031028;28;20618;-82
2021/12/17 12:34:06;;;;;;;40.65;15.30;;;10.10;86.40;;;;;;5024396;28;20224;-81
2021/12/17 12:37:10;;;;;;;33.55;15.73;;;10.00;86.00;;;;;;5032470;28;20182;-81
2021/12/17 12:39:49;;;;;;;35.63;15.15;;;10.10;86.20;;;;;;5025462;28;20556;-82
2021/12/17 12:42:31;;;;;;;36.80;16.55;;;9.90;86.10;;;;;;5030558;28;20169;-83
2021/12/17 12:44:57;;;;;;;30.55;13.85;;;10.10;86.40;;;;;;5023652;28;20198;-83
2021/12/17 12:47:26;;;;;;;40.93;16.30;;;10.10;85.90;;;;;;5025436;28;20224;-83
2021/12/17 12:50:06;;;;;;;39.35;16.10;;;9.90;86.00;;;;;;5027605;28;20433;-82
2021/12/17 12:52:43;;;;;;;38.95;17.85;;;9.90;86.30;;;;;;5037995;28;20186;-84
2021/12/17 12:55:27;;;;;;;40.72;16.98;;;9.90;86.50;;;;;;5044876;28;20296;-83
2021/12/17 12:58:03;;;;;;;38.08;16.48;;;9.90;86.60;;;;;;5043736;28;20241;-83
2021/12/17 13:00:33;;;;;;;45.20;15.82;;;10.00;86.60;;;;;;5044621;28;20241;-83
2021/12/17 13:03:01;;;;;;;33.13;14.07;;;9.80;86.60;;;;;;5043340;28;20235;-83
2021/12/17 13:05:28;;;;;;;40.78;16.10;;;9.80;86.80;;;;;;5040649;28;20206;-82
2021/12/17 13:07:56;;;;;;;39.85;16.38;;;9.90;86.90;;;;;;5033910;28;20252;-82
2021/12/17 13:10:44;;;;;;;34.33;16.48;;;10.10;86.80;;;;;;5022844;28;20187;-82
2021/12/17 13:13:18;;;;;;;36.60;16.73;;;10.20;86.90;;;;;;5026295;28;20222;-82
2021/12/17 13:15:51;;;;;;;39.28;15.35;;;10.10;86.50;;;;;;5021330;28;20257;-82
2021/12/17 13:23:52;;;;;;;39.30;15.85;;;10.00;86.80;;;;;;5031770;28;20634;-81
2021/12/17 13:26:23;;;;;;;32.95;15.93;;;9.90;87.00;;;;;;5040108;28;20173;-81
2021/12/17 13:29:05;;;;;;;39.47;16.20;;;10.10;87.20;;;;;;5039459;28;20170;-81
2021/12/17 13:31:49;;;;;;;40.10;17.13;;;10.10;87.00;;;;;;5041334;28;20165;-82
2021/12/17 13:34:19;;;;;;;32.92;15.93;;;10.30;87.80;;;;;;5018901;28;20241;-82
2021/12/17 13:37:15;;;;;;;33.42;15.40;;;10.40;86.50;;;;;;5048766;28;20177;-82
2021/12/17 13:39:46;;;;;;;38.78;19.40;;;10.40;86.30;;;;;;5058958;28;20272;-81
2021/12/17 13:42:17;;;;;;;34.17;16.23;;;10.30;86.20;;;;;;5052275;28;20657;-82
2021/12/17 13:44:46;;;;;;;39.15;16.20;;;10.30;86.00;;;;;;5034977;28;20202;-82
2021/12/17 13:47:16;;;;;;;52.75;15.75;;;10.40;85.80;;;;;;5040141;28;20193;-82
2021/12/17 13:49:52;;;;;;;50.92;16.83;;;10.60;85.70;;;;;;5040549;28;20196;-82
2021/12/17 13:52:22;;;;;;;33.92;17.15;;;10.60;85.30;;;;;;5020635;28;20190;-82
2021/12/17 13:54:50;;;;;;;46.08;18.75;;;10.50;85.20;;;;;;5020653;28;20211;-82
2021/12/17 13:57:18;;;;;;;36.13;17.13;;;10.60;85.20;;;;;;5020221;28;20182;-80
2021/12/17 13:59:45;;;;;;;55.15;16.45;;;10.50;85.10;;;;;;5019415;28;20672;-80
2021/12/17 14:02:17;;;;;;;37.00;15.55;;;10.40;85.20;;;;;;5026039;28;20276;-81
2021/12/17 14:05:14;;;;;;;31.10;16.35;;;10.40;85.40;;;;;;5020942;28;20194;-81
2021/12/17 14:07:40;;;;;;;41.00;17.13;;;10.50;85.40;;;;;;5020033;28;20279;-81
2021/12/17 14:10:15;;;;;;;36.83;15.02;;;10.40;85.10;;;;;;5018807;28;20631;-81
2021/12/17 14:12:42;;;;;;;41.00;15.18;;;10.40;85.20;;;;;;5023488;28;20193;-79
2021/12/17 14:15:21;;;;;;;45.92;15.77;;;10.30;85.30;;;;;;5026908;28;20259;-80
2021/12/17 14:17:53;;;;;;;42.42;17.23;;;10.20;85.30;;;;;;5028863;28;20197;-81
2021/12/17 14:20:22;;;;;;;32.10;14.60;;;10.20;85.50;;;;;;5027350;28;20194;-81
2021/12/17 14:22:50;;;;;;;33.15;15.55;;;10.20;85.70;;;;;;5025346;28;20261;-81
2021/12/17 14:25:44;;;;;;;28.15;12.95;;;10.20;85.60;;;;;;5030006;28;20205;-81
2021/12/17 14:28:25;;;;;;;36.50;14.55;;;10.00;85.70;;;;;;5025474;28;20186;-80
2021/12/17 14:31:00;;;;;;;27.77;13.25;;;10.10;86.00;;;;;;5029981;28;20266;-82
2021/12/17 14:33:31;;;;;;;29.40;11.65;;;10.00;85.90;;;;;;5048511;28;20292;-82
2021/12/17 14:36:11;;;;;;;38.75;14.77;;;10.00;85.90;;;;;;5038765;28;20202;-82
2021/12/17 14:38:54;;;;;;;35.42;15.10;;;10.00;86.10;;;;;;5028023;28;20664;-83
2021/12/17 14:41:38;;;;;;;29.98;13.25;;;10.00;86.10;;;;;;5030737;28;20170;-82
2021/12/17 14:44:33;;;;;;;35.40;15.20;;;9.90;86.10;;;;;;5030289;28;20202;-81
2021/12/17 14:47:34;;;;;;;32.17;15.43;;;9.90;85.90;;;;;;5012605;28;20212;-89
2021/12/17 15:03:24;;;;;;;46.83;19.27;;;9.80;86.10;;;;;;5037986;28;20420;-81
2021/12/17 15:05:50;;;;;;;50.08;20.85;;;9.90;86.20;;;;;;5037433;28;20208;-81
2021/12/17 15:08:16;;;;;;;46.58;17.63;;;9.80;86.10;;;;;;5037345;28;20178;-81
2021/12/17 15:10:42;;;;;;;43.80;17.77;;;9.70;86.20;;;;;;5042122;28;20213;-81
2021/12/17 15:13:08;;;;;;;40.38;16.67;;;9.60;86.30;;;;;;5045845;28;20448;-82
2021/12/17 15:15:36;;;;;;;32.60;14.13;;;9.50;86.30;;;;;;5045203;28;20209;-80
2021/12/17 15:18:14;;;;;;;40.15;16.08;;;9.50;86.60;;;;;;5046880;28;20263;-81
2021/12/17 15:20:45;;;;;;;35.47;14.82;;;9.50;86.80;;;;;;5053764;28;20193;-80
2021/12/17 15:23:11;;;;;;;43.35;17.05;;;9.50;86.80;;;;;;5042261;28;20203;-83
2021/12/17 15:25:39;;;;;;;47.40;16.50;;;9.60;86.90;;;;;;5056686;28;20197;-82
2021/12/17 15:28:06;;;;;;;41.28;17.45;;;9.70;86.90;;;;;;5061032;28;20269;-82
2021/12/17 15:30:41;;;;;;;47.88;16.77;;;9.80;86.80;;;;;;5062147;28;20189;-81
2021/12/17 15:33:08;;;;;;;44.47;17.10;;;9.80;86.60;;;;;;5045317;28;20268;-81
2021/12/17 15:35:34;;;;;;;26.75;13.75;;;9.70;86.40;;;;;;5054362;28;20197;-81
2021/12/17 15:38:01;;;;;;;39.57;14.60;;;9.70;86.70;;;;;;5060304;28;20649;-79
2021/12/17 15:40:28;;;;;;;32.17;13.10;;;9.70;86.80;;;;;;5060429;28;20416;-82
2021/12/17 15:43:01;;;;;;;28.85;14.05;;;9.70;86.80;;;;;;5051155;28;20201;-82
2021/12/17 15:45:28;;;;;;;35.50;14.63;;;9.80;86.80;;;;;;5049552;28;20205;-82
2021/12/17 15:47:53;;;;;;;27.15;12.52;;;9.80;86.80;;;;;;5047504;28;20182;-81
2021/12/17 15:50:19;;;;;;;29.17;12.23;;;9.90;87.10;;;;;;5036585;28;20206;-81
2021/12/17 15:52:45;;;;;;;32.07;13.50;;;9.70;86.60;;;;;;5030047;28;20193;-81
2021/12/17 15:55:21;;;;;;;30.63;12.60;;;9.60;86.70;;;;;;5029362;28;20448;-81
2021/12/17 15:57:46;;;;;;;35.63;12.77;;;9.70;87.00;;;;;;5029681;28;20417;-80
2021/12/17 16:00:15;;;;;;;38.30;15.60;;;9.70;86.90;;;;;;5028088;28;20178;-81
2021/12/17 16:02:42;;;;;;;39.08;15.50;;;9.70;87.00;;;;;;5029038;28;20425;-82
2021/12/17 16:05:10;;;;;;;31.65;13.70;;;9.70;87.00;;;;;;5023976;28;20678;-81
2021/12/17 16:07:36;;;;;;;37.03;15.45;;;9.70;87.00;;;;;;5024899;28;20642;-80
2021/12/17 16:21:03;;;;;;;45.20;18.15;;;9.80;87.10;;;;;;5026399;28;20205;-81